Time;durP1;ratioP1;P1;durP2;ratioP2;P2;SDS_P1;SDS_P2;PMS_P1;PMS_P2;Temp;Humidity;BMP_temperature;BMP_pressure;BME280_temperature;BME280_humidity;BME280_pressure;Samples;Min_cycle;Max_cycle;Signal;HPM_P1;HPM_P2
2021/01/13 00:04:23;;;;;;;36.30;16.67;;;;;;;-0.29;80.66;97806.16;4399139;79;21615;-84
2021/01/13 00:10:25;;;;;;;48.78;24.52;;;;;;;-0.31;80.81;97803.01;4399819;80;21439;-84
2021/01/13 00:16:26;;;;;;;49.70;22.20;;;;;;;-0.24;81.01;97811.33;4402390;80;21157;-85
2021/01/13 00:22:28;;;;;;;30.10;14.58;;;;;;;-0.24;81.18;97818.85;4401269;80;21164;-85
2021/01/13 00:28:31;;;;;;;29.25;13.70;;;;;;;-0.28;81.59;97807.72;4402251;80;21583;-85
2021/01/13 00:34:32;;;;;;;30.32;13.43;;;;;;;-0.28;81.59;97807.72;4406952;80;21141;-85
2021/01/13 00:40:34;;;;;;;26.90;13.68;;;;;;;-0.20;81.73;97826.47;4404393;80;21197;-85
2021/01/13 00:46:39;;;;;;;29.37;14.18;;;;;;;-0.21;82.65;97842.94;4418030;80;21561;-85
2021/01/13 00:52:47;;;;;;;23.25;12.68;;;;;;;-0.12;82.76;97853.05;4396744;80;21169;-85
2021/01/13 00:58:48;;;;;;;26.77;12.73;;;;;;;-0.12;82.76;97853.05;4398961;80;21304;-84
2021/01/13 01:04:49;;;;;;;24.40;12.47;;;;;;;-0.19;83.40;97836.09;4386883;79;21821;-85
2021/01/13 01:10:53;;;;;;;31.62;13.22;;;;;;;-0.04;83.16;97862.92;4349568;80;21157;-84
2021/01/13 01:16:54;;;;;;;18.17;9.65;;;;;;;-0.02;84.22;97861.47;4358235;80;21136;-85
2021/01/13 01:23:01;;;;;;;14.50;7.70;;;;;;;0.05;84.49;97873.03;4357907;80;21216;-86
2021/01/13 01:29:04;;;;;;;19.93;9.73;;;;;;;0.08;84.53;97887.16;4342835;80;21185;-85
2021/01/13 01:35:07;;;;;;;24.40;11.22;;;;;;;0.08;84.63;97881.02;4355906;80;21143;-85
2021/01/13 01:41:15;;;;;;;25.73;11.03;;;;;;;0.11;84.37;97883.03;4361497;80;21624;-85
2021/01/13 01:47:15;;;;;;;27.80;13.10;;;;;;;0.13;84.56;97902.30;4355013;80;21189;-84
2021/01/13 01:53:57;;;;;;;26.87;12.00;;;;;;;0.13;85.04;97916.55;4364688;80;21171;-84
2021/01/13 02:00:07;;;;;;;31.13;12.83;;;;;;;0.13;85.05;97920.59;4360021;80;21846;-85
2021/01/13 02:06:14;;;;;;;19.10;10.07;;;;;;;0.13;85.04;97920.59;4383259;80;21171;-84
2021/01/13 02:12:19;;;;;;;17.20;8.90;;;;;;;0.14;84.93;97917.36;4397747;80;21584;-85
2021/01/13 02:18:22;;;;;;;27.20;12.07;;;;;;;0.10;84.74;97927.98;4407620;80;21181;-84
2021/01/13 02:25:15;;;;;;;18.73;9.90;;;;;;;0.03;84.66;97944.67;4407870;80;21172;-84
2021/01/13 02:31:44;;;;;;;22.97;11.03;;;;;;;-0.01;85.12;97942.42;4405469;80;21174;-84
2021/01/13 02:38:12;;;;;;;21.03;10.93;;;;;;;-0.04;84.70;97944.98;4410943;80;21161;-85
2021/01/13 02:44:15;;;;;;;25.10;13.23;;;;;;;-0.04;85.14;97942.30;4403189;80;21193;-85
2021/01/13 02:50:30;;;;;;;29.25;15.15;;;;;;;-0.06;84.77;97948.55;4400940;80;21182;-84
2021/01/13 02:57:08;;;;;;;30.57;14.07;;;;;;;-0.08;84.78;97950.81;4414576;80;21179;-85
2021/01/13 03:03:14;;;;;;;26.93;13.77;;;;;;;-0.11;84.87;97958.20;4399523;80;21202;-84
2021/01/13 03:09:15;;;;;;;40.70;17.62;;;;;;;-0.14;85.01;97962.31;4410251;80;21147;-85
2021/01/13 03:15:18;;;;;;;27.23;14.27;;;;;;;-0.15;85.03;97951.34;4401935;80;21150;-84
2021/01/13 03:21:24;;;;;;;27.77;14.50;;;;;;;-0.14;84.93;97955.59;4406423;80;21141;-84
2021/01/13 03:27:30;;;;;;;27.25;14.83;;;;;;;-0.20;84.95;97957.47;4414297;80;21130;-84
2021/01/13 03:34:09;;;;;;;34.13;16.30;;;;;;;-0.20;85.04;97966.33;4404333;80;21606;-84
2021/01/13 03:40:15;;;;;;;30.95;16.50;;;;;;;-0.22;85.15;97972.59;4411358;80;21160;-84
2021/01/13 03:46:18;;;;;;;27.60;15.00;;;;;;;-0.22;85.15;97968.55;4401928;80;21161;-84
2021/01/13 03:52:23;;;;;;;29.42;15.53;;;;;;;-0.23;85.23;97967.54;4402496;80;21141;-84
2021/01/13 03:58:33;;;;;;;29.87;16.43;;;;;;;-0.24;85.46;97974.05;4414698;80;21591;-85
2021/01/13 04:04:48;;;;;;;34.03;16.63;;;;;;;-0.24;85.91;97970.02;4392148;78;21148;-85
2021/01/13 04:10:50;;;;;;;28.13;14.37;;;;;;;-0.22;85.97;97958.37;4388145;80;21170;-85
2021/01/13 04:16:54;;;;;;;28.60;15.60;;;;;;;-0.21;86.05;97966.11;4400583;80;21565;-85
2021/01/13 04:22:56;;;;;;;32.27;16.07;;;;;;;-0.24;86.21;97964.08;4385304;80;21351;-85
2021/01/13 04:28:58;;;;;;;26.90;15.07;;;;;;;-0.20;86.33;97969.56;4382772;80;21118;-84
2021/01/13 04:35:00;;;;;;;33.60;17.20;;;;;;;-0.16;86.36;97971.84;4388784;80;21611;-85
2021/01/13 04:41:18;;;;;;;33.57;17.50;;;;;;;-0.14;86.50;97982.49;4394484;80;22038;-85
2021/01/13 04:47:25;;;;;;;32.17;14.93;;;;;;;-0.08;86.57;97984.44;4399709;80;21295;-85
2021/01/13 04:53:30;;;;;;;26.75;14.50;;;;;;;-0.07;86.57;97981.42;4397974;80;21591;-85
2021/01/13 05:00:11;;;;;;;25.53;14.53;;;;;;;-0.07;86.73;97993.52;4396197;80;21166;-85
2021/01/13 05:06:39;;;;;;;28.80;14.75;;;;;;;-0.07;86.84;98002.14;4388464;80;21204;-85
2021/01/13 05:12:56;;;;;;;28.27;15.27;;;;;;;-0.09;87.01;98004.37;4404932;80;21142;-85
2021/01/13 05:19:02;;;;;;;27.30;14.20;;;;;;;-0.10;87.16;98013.56;4404745;80;21849;-85
2021/01/13 05:25:08;;;;;;;29.90;15.93;;;;;;;-0.11;87.08;98016.03;4401644;80;21311;-85
2021/01/13 05:31:14;;;;;;;33.33;15.95;;;;;;;-0.10;86.98;98019.74;4407622;80;21171;-85
2021/01/13 05:37:41;;;;;;;26.53;12.53;;;;;;;-0.13;87.41;98023.09;4409469;80;21173;-85
2021/01/13 05:43:47;;;;;;;30.50;12.10;;;;;;;-0.18;87.35;98041.31;4405303;80;21714;-86
2021/01/13 05:49:49;;;;;;;30.40;12.60;;;;;;;-0.25;87.84;98045.87;4408327;80;21732;-85
2021/01/13 05:55:52;;;;;;;28.17;12.40;;;;;;;-0.32;87.30;98057.72;4402771;80;21879;-84
2021/01/13 06:01:59;;;;;;;25.73;11.80;;;;;;;-0.39;87.46;98082.17;4403096;80;21295;-85
2021/01/13 06:08:04;;;;;;;30.80;9.57;;;;;;;-0.43;87.48;98081.27;4412648;80;21640;-85
2021/01/13 06:14:06;;;;;;;16.60;7.10;;;;;;;-0.48;87.26;98098.92;4357411;81;21173;-85
2021/01/13 06:20:09;;;;;;;12.47;4.80;;;;;;;-0.55;87.11;98109.41;4371481;81;21786;-85
2021/01/13 06:26:12;;;;;;;7.83;4.03;;;;;;;-0.54;87.41;98127.91;4362817;81;21181;-85
2021/01/13 06:32:21;;;;;;;8.23;3.55;;;;;;;-0.62;86.61;98139.48;4355702;81;21643;-86
2021/01/13 06:38:49;;;;;;;12.70;4.73;;;;;;;-0.66;86.33;98157.34;4359857;81;21173;-86
2021/01/13 06:44:58;;;;;;;11.78;4.47;;;;;;;-0.71;86.15;98169.63;4396451;80;21623;-85
2021/01/13 06:51:13;;;;;;;13.63;5.90;;;;;;;-0.72;85.97;98185.50;4352974;80;21197;-85
2021/01/13 06:57:30;;;;;;;14.63;5.07;;;;;;;-0.74;86.05;98186.41;4316542;81;21153;-86
2021/01/13 07:03:32;;;;;;;11.80;5.30;;;;;;;-0.77;85.98;98195.11;4327928;81;21204;-85
2021/01/13 07:09:43;;;;;;;14.30;5.60;;;;;;;-0.77;85.68;98208.55;4370073;80;21169;-86
2021/01/13 07:15:45;;;;;;;28.33;6.57;;;;;;;-0.77;85.89;98222.53;4327845;81;21154;-85
2021/01/13 07:21:46;;;;;;;16.03;5.30;;;;;;;-0.78;85.97;98219.59;4326832;81;21149;-85
2021/01/13 07:27:51;;;;;;;12.13;6.10;;;;;;;-0.76;85.96;98227.58;4326339;81;21460;-86
2021/01/13 07:33:55;;;;;;;15.17;6.60;;;;;;;-0.73;86.01;98220.22;4355860;81;21319;-86
2021/01/13 07:40:24;;;;;;;22.40;8.80;;;;;;;-0.70;86.10;98222.81;4350581;81;21320;-86
2021/01/13 07:46:32;;;;;;;22.97;7.73;;;;;;;-0.63;85.90;98233.33;4355142;81;21190;-86
2021/01/13 07:52:43;;;;;;;19.13;8.10;;;;;;;-0.60;85.93;98234.58;4373352;81;21852;-86
2021/01/13 07:58:51;;;;;;;20.50;8.83;;;;;;;-0.57;85.94;98243.34;4355557;81;21141;-85
2021/01/13 08:05:23;;;;;;;25.97;9.93;;;;;;;-0.53;85.83;98241.58;4367746;81;21169;-86
2021/01/13 08:11:56;;;;;;;25.40;11.30;;;;;;;-0.47;85.85;98250.50;4342974;81;21315;-84
2021/01/13 08:18:25;;;;;;;26.82;10.48;;;;;;;-0.40;85.71;98248.67;4343307;81;21481;-86
2021/01/13 08:24:37;;;;;;;30.12;10.08;;;;;;;-0.30;85.52;98246.41;4355994;81;21180;-85
2021/01/13 08:30:44;;;;;;;18.02;9.10;;;;;;;-0.23;85.86;98239.99;4352995;81;21129;-85
2021/01/13 08:36:54;;;;;;;19.55;9.03;;;;;;;-0.15;85.28;98252.62;4347177;81;21162;-86
2021/01/13 08:43:05;;;;;;;25.70;10.82;;;;;;;-0.13;85.39;98247.72;4395452;79;21630;-85
2021/01/13 08:49:08;;;;;;;21.20;9.70;;;;;;;-0.12;85.26;98243.10;4391234;80;21588;-86
2021/01/13 08:55:15;;;;;;;23.80;9.73;;;;;;;-0.10;85.53;98247.61;4398227;79;21707;-85
2021/01/13 09:01:18;;;;;;;25.20;10.98;;;;;;;-0.02;85.52;98254.28;4395287;80;21142;-85
2021/01/13 09:07:29;;;;;;;28.77;13.03;;;;;;;0.01;85.10;98240.76;4350389;81;21350;-85
2021/01/13 09:13:40;;;;;;;26.30;11.20;;;;;;;0.08;85.13;98254.48;4344617;81;21659;-86
2021/01/13 09:19:43;;;;;;;27.17;10.55;;;;;;;0.09;84.92;98262.80;4348586;81;21166;-85
2021/01/13 09:25:45;;;;;;;30.25;11.68;;;;;;;-0.05;85.04;98279.72;4354439;81;21207;-85
2021/01/13 09:32:15;;;;;;;26.80;13.05;;;;;;;-0.16;85.34;98268.51;4342033;81;21126;-85
2021/01/13 09:38:36;;;;;;;35.60;14.10;;;;;;;-0.01;85.49;98252.39;4356311;81;21162;-85
2021/01/13 09:44:38;;;;;;;32.40;15.00;;;;;;;0.15;85.07;98260.70;4349661;81;21163;-85
2021/01/13 09:50:39;;;;;;;38.13;14.33;;;;;;;0.29;85.20;98262.61;4350834;81;21130;-85
2021/01/13 09:56:42;;;;;;;36.93;14.60;;;;;;;0.37;84.65;98261.22;4361123;81;21208;-85
2021/01/13 10:02:48;;;;;;;30.33;12.67;;;;;;;0.41;84.50;98265.41;4346725;81;21582;-86
2021/01/13 10:08:51;;;;;;;32.13;14.85;;;;;;;0.29;84.65;98269.34;4351773;81;21181;-85
2021/01/13 10:14:53;;;;;;;46.08;16.60;;;;;;;0.15;85.08;98264.74;4367186;81;21192;-85
2021/01/13 10:21:00;;;;;;;38.17;14.60;;;;;;;0.09;85.32;98257.42;4356323;81;21168;-85
2021/01/13 10:27:02;;;;;;;34.13;13.30;;;;;;;0.10;85.51;98253.61;4351015;81;21659;-85
2021/01/13 10:33:04;;;;;;;37.08;15.35;;;;;;;0.07;85.67;98255.60;4367653;81;21469;-85
2021/01/13 10:39:14;;;;;;;45.67;17.12;;;;;;;0.16;85.60;98253.65;4350901;81;21162;-85
2021/01/13 10:45:17;;;;;;;46.70;18.37;;;;;;;0.28;85.79;98244.34;4349419;81;21152;-86
2021/01/13 10:51:21;;;;;;;44.88;18.23;;;;;;;0.50;86.04;98238.63;4356758;81;21709;-85
2021/01/13 10:57:32;;;;;;;48.35;19.92;;;;;;;0.81;85.31;98234.22;4362894;81;21711;-86
2021/01/13 11:03:38;;;;;;;44.73;17.92;;;;;;;0.81;85.31;98234.22;4348650;81;21212;-86
2021/01/13 11:09:49;;;;;;;38.60;14.73;;;;;;;0.79;84.80;98221.08;4359802;81;21296;-86
2021/01/13 11:15:51;;;;;;;24.27;9.98;;;;;;;0.84;84.01;98210.11;4341054;81;21161;-85
2021/01/13 11:22:03;;;;;;;26.27;9.80;;;;;;;0.73;83.62;98193.31;4348763;81;21169;-85
2021/01/13 11:28:13;;;;;;;22.00;8.95;;;;;;;0.57;83.63;98193.67;4350120;81;21156;-85
2021/01/13 11:34:22;;;;;;;18.73;8.63;;;;;;;0.57;83.63;98193.67;4346945;81;21144;-85
2021/01/13 11:41:14;;;;;;;21.70;9.27;;;;;;;0.53;84.25;98212.97;4350126;81;21213;-85
2021/01/13 11:47:24;;;;;;;24.45;10.23;;;;;;;0.36;84.58;98195.02;4355885;81;21177;-86
2021/01/13 11:53:28;;;;;;;29.00;12.70;;;;;;;0.34;84.86;98195.13;4348731;81;21196;-86
2021/01/13 11:59:30;;;;;;;31.40;13.62;;;;;;;0.32;85.12;98196.00;4353547;81;21157;-85
2021/01/13 12:05:35;;;;;;;28.77;14.25;;;;;;;0.21;85.26;98190.22;4347551;81;21192;-87
2021/01/13 12:11:40;;;;;;;32.17;13.70;;;;;;;0.18;85.58;98191.42;4357539;80;21158;-86
2021/01/13 12:17:50;;;;;;;31.10;12.85;;;;;;;0.16;85.80;98190.40;4356061;81;21803;-87
2021/01/13 12:23:53;;;;;;;29.63;13.83;;;;;;;0.10;85.82;98189.56;4354004;81;21748;-87
2021/01/13 12:30:14;;;;;;;33.98;14.90;;;;;;;0.06;86.11;98180.58;4353242;81;21341;-87
2021/01/13 12:36:30;;;;;;;32.15;14.13;;;;;;;0.08;86.56;98167.02;4352169;81;21662;-88
2021/01/13 12:42:33;;;;;;;19.70;11.43;;;;;;;0.08;86.56;98167.02;4358827;81;21145;-88
2021/01/13 12:48:35;;;;;;;28.40;13.80;;;;;;;0.16;86.50;98166.17;4360109;81;21709;-88
2021/01/13 12:54:38;;;;;;;30.17;14.10;;;;;;;0.25;86.64;98166.13;4355770;81;21638;-89
2021/01/13 13:00:43;;;;;;;28.85;14.68;;;;;;;0.35;86.79;98165.73;4343408;81;21149;-90
2021/01/13 13:06:44;;;;;;;32.67;14.68;;;;;;;0.32;86.75;98163.69;4356970;81;21140;-89
2021/01/13 13:12:46;;;;;;;30.43;15.70;;;;;;;0.24;86.83;98176.10;4340174;81;21142;-91
2021/01/13 13:25:06;;;;;;;32.30;15.38;;;;;;;0.23;87.21;98166.47;4621759;75;22893;-93
2021/01/13 13:31:15;;;;;;;29.52;15.00;;;;;;;0.16;87.27;98170.80;4508692;78;21156;-92
2021/01/13 13:37:17;;;;;;;31.48;14.65;;;;;;;0.03;87.33;98159.93;4492421;79;21152;-92
2021/01/13 13:43:19;;;;;;;29.55;13.55;;;;;;;0.00;87.73;98165.97;4469903;79;21623;-93
2021/01/13 13:49:21;;;;;;;29.17;14.23;;;;;;;0.00;87.73;98165.97;4467903;78;21124;-91
2021/01/13 13:55:22;;;;;;;31.30;16.07;;;;;;;0.11;87.65;98186.55;4487098;79;21132;-92
2021/01/13 14:01:32;;;;;;;33.70;17.37;;;;;;;0.11;87.78;98181.74;4476260;79;21633;-92
2021/01/13 14:07:34;;;;;;;34.35;18.12;;;;;;;0.13;87.85;98182.19;4476096;79;21443;-91
2021/01/13 14:13:35;;;;;;;39.95;17.45;;;;;;;0.05;87.62;98183.82;4493121;79;21729;-89
2021/01/13 14:19:37;;;;;;;34.55;14.70;;;;;;;0.05;87.62;98183.82;4493625;79;21175;-94
2021/01/13 14:25:38;;;;;;;25.68;14.05;;;;;;;0.12;88.02;98209.67;4491799;79;21121;-93
2021/01/13 14:31:40;;;;;;;29.57;14.70;;;;;;;0.08;88.15;98212.00;4497094;79;21136;-92
2021/01/13 14:37:42;;;;;;;28.60;14.25;;;;;;;0.06;88.41;98215.02;4471244;79;21136;-92
2021/01/13 14:43:44;;;;;;;31.42;15.32;;;;;;;0.06;88.41;98215.02;4476408;79;21140;-93
2021/01/13 14:49:46;;;;;;;30.30;15.57;;;;;;;0.07;88.33;98211.75;4477631;79;21112;-92
2021/01/13 14:55:49;;;;;;;34.05;18.02;;;;;;;0.02;88.63;98210.61;4478426;79;21144;-93
2021/01/13 15:01:51;;;;;;;39.10;18.05;;;;;;;0.02;88.63;98210.61;4500046;77;21168;-94
2021/01/13 15:08:20;;;;;;;;;;;;;;;;;;;;;
2021/01/13 15:14:25;;;;;;;36.03;18.73;;;;;;;0.08;88.73;98213.34;4014668;84;21198;-94
2021/01/13 15:20:27;;;;;;;26.33;14.70;;;;;;;0.09;88.67;98213.02;4306031;79;21238;-91
2021/01/13 15:26:29;;;;;;;31.93;15.60;;;;;;;0.08;88.60;98202.58;4342064;81;21648;-92
2021/01/13 15:32:31;;;;;;;33.35;15.65;;;;;;;0.01;88.62;98199.05;4333327;81;21269;-93
2021/01/13 15:38:34;;;;;;;34.70;17.00;;;;;;;0.00;88.60;98202.86;4333047;82;21184;-93
2021/01/13 15:44:49;;;;;;;33.70;15.35;;;;;;;-0.04;88.56;98189.27;4332599;81;21283;-92
2021/01/13 15:50:51;;;;;;;35.75;16.87;;;;;;;-0.10;88.68;98189.77;4301436;82;21159;-92
2021/01/13 15:56:58;;;;;;;29.32;14.53;;;;;;;-0.19;88.93;98187.11;4268371;82;21169;-94
2021/01/13 16:02:59;;;;;;;35.48;16.73;;;;;;;-0.16;88.91;98181.08;4252326;84;21160;-93
2021/01/13 16:09:02;;;;;;;35.30;17.12;;;;;;;-0.15;88.86;98193.44;4245156;83;21327;-94
2021/01/13 16:15:07;;;;;;;32.38;16.65;;;;;;;-0.15;88.86;98188.61;4288623;82;21640;-92
2021/01/13 16:21:13;;;;;;;32.40;15.40;;;;;;;-0.17;88.87;98186.23;4224584;83;21356;-92
2021/01/13 16:27:27;;;;;;;33.13;15.23;;;;;;;-0.21;88.89;98177.80;4261143;82;21176;-94
2021/01/13 16:33:41;;;;;;;25.27;13.47;;;;;;;-0.25;88.97;98183.61;4252669;83;21150;-93
2021/01/13 16:39:43;;;;;;;26.80;12.63;;;;;;;-0.23;88.99;98175.44;4244520;83;21184;-94
2021/01/13 16:45:47;;;;;;;25.20;11.00;;;;;;;-0.25;89.08;98171.51;4242690;84;21646;-95
2021/01/13 16:51:53;;;;;;;31.65;12.95;;;;;;;-0.21;89.04;98180.48;4249183;83;21623;-92
2021/01/13 16:57:58;;;;;;;32.40;13.18;;;;;;;-0.19;89.05;98174.24;4258984;83;21607;-93
2021/01/13 17:04:01;;;;;;;30.30;13.60;;;;;;;-0.23;89.08;98172.75;4262596;83;21611;-92
2021/01/13 17:10:06;;;;;;;25.83;12.17;;;;;;;-0.23;89.18;98174.09;4242637;83;21319;-93
2021/01/13 17:16:08;;;;;;;29.45;12.88;;;;;;;-0.26;89.22;98173.94;4250884;83;21198;-92
2021/01/13 17:22:10;;;;;;;29.57;13.83;;;;;;;-0.41;89.50;98143.00;4192729;84;21233;-93
2021/01/13 17:28:17;;;;;;;23.13;12.13;;;;;;;-0.41;89.50;98143.00;4206496;82;21177;-92
2021/01/13 17:34:19;;;;;;;24.17;13.80;;;;;;;-0.25;89.58;98156.14;4235532;84;21177;-93
2021/01/13 17:40:23;;;;;;;32.50;16.40;;;;;;;-0.23;89.44;98159.30;4231432;84;21242;-93
2021/01/13 17:46:26;;;;;;;30.92;16.50;;;;;;;-0.24;89.49;98157.73;4206140;84;21168;-92
2021/01/13 17:52:30;;;;;;;34.58;16.77;;;;;;;-0.26;89.51;98155.92;4242868;84;21185;-92
2021/01/13 17:58:32;;;;;;;33.45;17.87;;;;;;;-0.24;89.56;98159.08;4214576;84;21197;-93
2021/01/13 18:04:38;;;;;;;34.85;18.15;;;;;;;-0.22;89.62;98139.92;4243520;84;21216;-91
2021/01/13 18:10:39;;;;;;;36.53;17.77;;;;;;;-0.25;89.66;98125.20;4207988;84;21636;-92
2021/01/13 18:16:49;;;;;;;34.20;17.55;;;;;;;-0.22;89.62;98129.16;4220124;84;21146;-93
2021/01/13 18:22:50;;;;;;;38.13;18.30;;;;;;;-0.22;89.61;98115.72;4218632;84;21756;-92
2021/01/13 18:28:52;;;;;;;39.53;18.43;;;;;;;-0.23;89.68;98113.58;4225781;84;21317;-91
2021/01/13 18:34:53;;;;;;;40.33;18.73;;;;;;;-0.17;89.66;98111.47;4229356;84;21366;-92
2021/01/13 18:40:55;;;;;;;34.67;18.07;;;;;;;-0.21;89.54;98109.22;4236129;84;21196;-92
2021/01/13 18:46:57;;;;;;;36.68;18.23;;;;;;;-0.21;89.64;98110.01;4236214;84;21665;-90
2021/01/13 18:53:00;;;;;;;39.38;18.75;;;;;;;-0.17;89.67;98113.61;4235901;83;21184;-90
2021/01/13 18:59:04;;;;;;;45.33;20.20;;;;;;;-0.17;89.68;98103.40;4224204;82;21319;-90
2021/01/13 19:05:07;;;;;;;44.23;21.60;;;;;;;-0.18;89.67;98093.22;4211324;82;21182;-90
2021/01/13 19:11:09;;;;;;;45.67;22.67;;;;;;;-0.15;89.72;98097.14;4187850;82;21205;-90
2021/01/13 19:17:11;;;;;;;44.80;23.42;;;;;;;-0.15;89.69;98096.59;4203313;82;21213;-90
2021/01/13 19:23:12;;;;;;;47.73;26.48;;;;;;;-0.18;89.77;98094.56;4206732;83;21315;-89
2021/01/13 19:29:14;;;;;;;44.80;23.95;;;;;;;-0.17;89.76;98088.06;4084549;82;9999718;-89
2021/01/13 19:35:22;;;;;;;46.48;22.25;;;;;;;-0.12;89.80;98087.08;4208079;82;22150;-89
2021/01/13 19:41:26;;;;;;;53.40;24.77;;;;;;;-0.19;89.68;98077.41;4208377;82;21223;-89
2021/01/13 19:47:28;;;;;;;54.77;27.37;;;;;;;-0.27;89.98;98074.98;4207732;82;21185;-90
2021/01/13 19:53:29;;;;;;;55.98;26.73;;;;;;;-0.21;89.94;98059.45;4212765;82;21331;-90
2021/01/13 19:59:31;;;;;;;55.30;26.35;;;;;;;-0.16;90.05;98049.27;4212086;82;21337;-89
2021/01/13 20:05:35;;;;;;;56.80;27.87;;;;;;;-0.14;89.86;98051.09;4199503;82;21265;-90
2021/01/13 20:11:46;;;;;;;69.67;29.42;;;;;;;-0.19;89.81;98041.86;4191241;82;21201;-90
2021/01/13 20:17:48;;;;;;;57.38;27.62;;;;;;;-0.24;89.98;98038.05;4196148;82;21209;-89
2021/01/13 20:23:49;;;;;;;47.40;22.87;;;;;;;-0.27;90.06;98035.98;4174651;83;21651;-89
2021/01/13 20:29:52;;;;;;;51.90;23.52;;;;;;;-0.27;89.96;98037.33;4177977;83;21205;-89
2021/01/13 20:35:53;;;;;;;50.35;23.75;;;;;;;-0.36;90.16;98020.47;4183052;83;21989;-90
2021/01/13 20:41:55;;;;;;;48.17;24.47;;;;;;;-0.26;90.20;98019.30;4178516;83;21182;-90
2021/01/13 20:47:58;;;;;;;55.43;25.30;;;;;;;-0.21;90.12;98009.14;4171650;83;21170;-88
2021/01/13 20:54:00;;;;;;;51.75;23.30;;;;;;;-0.23;90.29;98003.84;4178650;83;21220;-89
2021/01/13 21:00:03;;;;;;;49.03;24.30;;;;;;;-0.18;90.42;97989.66;4171764;83;21253;-90
2021/01/13 21:06:04;;;;;;;55.65;24.12;;;;;;;-0.18;90.42;97989.66;4183118;83;21655;-91
2021/01/13 21:12:11;;;;;;;39.03;21.23;;;;;;;-0.20;90.27;97983.02;4177446;83;21501;-89
2021/01/13 21:18:12;;;;;;;40.50;17.02;;;;;;;-0.22;90.22;97978.55;4191429;83;21204;-90
2021/01/13 21:24:14;;;;;;;38.27;18.00;;;;;;;-0.21;90.14;97969.35;4197332;82;21216;-89
2021/01/13 21:30:16;;;;;;;32.60;14.33;;;;;;;-0.22;90.08;97961.83;4205786;82;21319;-90
2021/01/13 21:36:32;;;;;;;30.02;14.10;;;;;;;-0.25;90.15;97955.00;4190419;82;21201;-89
2021/01/13 21:42:35;;;;;;;31.52;15.30;;;;;;;-0.23;90.20;97949.51;4222036;82;21349;-90
2021/01/13 21:48:36;;;;;;;28.27;15.38;;;;;;;-0.22;90.09;97943.58;4204231;82;21295;-90
2021/01/13 21:54:38;;;;;;;29.40;15.90;;;;;;;-0.31;90.03;97941.50;4208031;82;21689;-89
2021/01/13 22:00:39;;;;;;;36.23;16.87;;;;;;;-0.37;90.11;97932.86;4207821;82;21614;-90
2021/01/13 22:06:42;;;;;;;47.45;20.45;;;;;;;-0.40;90.08;97934.87;4194493;82;21165;-89
2021/01/13 22:12:44;;;;;;;69.70;28.85;;;;;;;-0.42;90.18;97930.37;4197965;82;21323;-89
2021/01/13 22:18:48;;;;;;;63.87;27.02;;;;;;;-0.39;90.24;97919.50;4205449;82;21196;-90
2021/01/13 22:24:50;;;;;;;42.73;19.67;;;;;;;-0.39;90.29;97912.23;4202083;82;21193;-90
2021/01/13 22:30:52;;;;;;;113.45;41.08;;;;;;;-0.42;90.32;97907.52;4190966;82;21224;-90
2021/01/13 22:36:54;;;;;;;66.60;27.70;;;;;;;-0.40;90.32;97898.56;4210206;82;21228;-89
2021/01/13 22:42:56;;;;;;;59.97;24.40;;;;;;;-0.41;90.44;97890.25;4210450;82;21818;-89
2021/01/13 22:48:57;;;;;;;55.57;25.77;;;;;;;-0.39;90.35;97884.00;4204723;82;21307;-89
2021/01/13 22:54:58;;;;;;;54.35;22.60;;;;;;;-0.39;90.33;97885.34;4225662;82;21221;-88
2021/01/13 23:01:00;;;;;;;44.15;18.65;;;;;;;-0.43;90.55;97875.58;4217517;82;21153;-88
2021/01/13 23:07:02;;;;;;;43.92;20.05;;;;;;;-0.44;90.52;97865.38;4216874;82;21212;-88
2021/01/13 23:13:04;;;;;;;28.23;14.35;;;;;;;-0.42;90.68;97861.80;4218208;82;21803;-88
2021/01/13 23:19:07;;;;;;;31.47;15.33;;;;;;;-0.38;90.62;97853.32;4214926;82;21377;-88
2021/01/13 23:25:14;;;;;;;39.38;17.70;;;;;;;-0.38;90.69;97838.53;4217389;82;21152;-89
2021/01/13 23:31:15;;;;;;;33.42;16.67;;;;;;;-0.41;90.52;97829.76;4203806;82;21350;-89
2021/01/13 23:37:17;;;;;;;35.15;16.20;;;;;;;-0.41;90.55;97837.05;4195796;82;21299;-89
2021/01/13 23:43:18;;;;;;;32.17;15.83;;;;;;;-0.43;90.56;97827.98;4211178;82;21792;-88
2021/01/13 23:49:20;;;;;;;31.50;15.93;;;;;;;-0.40;90.59;97820.59;4209222;82;21315;-88
2021/01/13 23:55:22;;;;;;;35.33;17.03;;;;;;;-0.39;90.54;97813.30;4207425;82;21653;-88
